Time;durP1;ratioP1;P1;durP2;ratioP2;P2;SDS_P1;SDS_P2;PMS_P1;PMS_P2;Temp;Humidity;BMP_temperature;BMP_pressure;BME280_temperature;BME280_humidity;BME280_pressure;Samples;Min_cycle;Max_cycle;Signal;HPM_P1;HPM_P2
2023/08/12 00:00:19;;;;;;;4.40;3.60;;;20.10;99.90;;;;;;5006676;28;90182;-36
2023/08/12 00:02:45;;;;;;;4.22;3.50;;;20.10;99.90;;;;;;5019454;28;88804;-34
2023/08/12 00:05:11;;;;;;;4.43;3.17;;;20.10;99.90;;;;;;5019860;28;90087;-33
2023/08/12 00:07:36;;;;;;;3.40;3.10;;;20.10;99.90;;;;;;5000935;28;90338;-34
2023/08/12 00:10:04;;;;;;;4.63;3.38;;;20.10;99.90;;;;;;4999819;28;88884;-31
2023/08/12 00:12:33;;;;;;;5.17;3.30;;;20.10;99.90;;;;;;5018606;28;89029;-35
2023/08/12 00:15:00;;;;;;;4.05;2.60;;;20.10;99.90;;;;;;5019050;28;90036;-33
2023/08/12 00:17:25;;;;;;;5.05;2.67;;;20.10;99.90;;;;;;5018602;28;91497;-32
2023/08/12 00:19:51;;;;;;;3.03;2.60;;;20.00;99.90;;;;;;5019312;28;90551;-31
2023/08/12 00:22:17;;;;;;;5.55;3.78;;;20.00;99.90;;;;;;5012475;28;88645;-36
2023/08/12 00:24:43;;;;;;;3.28;2.42;;;20.00;99.90;;;;;;4999339;28;89147;-34
2023/08/12 00:27:08;;;;;;;3.67;3.15;;;19.90;99.90;;;;;;5005581;28;90311;-34
2023/08/12 00:29:35;;;;;;;4.00;2.92;;;19.90;99.90;;;;;;5019034;28;89470;-34
2023/08/12 00:32:01;;;;;;;4.47;3.80;;;19.90;99.90;;;;;;5019535;28;88937;-32
2023/08/12 00:34:27;;;;;;;3.45;3.08;;;19.90;99.90;;;;;;5018892;28;89772;-33
2023/08/12 00:36:52;;;;;;;6.53;3.95;;;19.90;99.90;;;;;;5001285;28;91861;-33
2023/08/12 00:39:18;;;;;;;6.07;4.90;;;19.90;99.90;;;;;;5017810;28;89579;-34
2023/08/12 00:41:44;;;;;;;6.70;4.90;;;19.90;99.90;;;;;;5019183;28;90680;-32
2023/08/12 00:44:10;;;;;;;5.28;4.07;;;19.90;99.90;;;;;;5016571;28;90685;-33
2023/08/12 00:46:37;;;;;;;5.97;4.32;;;19.90;99.90;;;;;;5018763;28;89617;-33
2023/08/12 00:49:04;;;;;;;5.80;4.20;;;19.80;99.90;;;;;;5018817;28;89759;-34
2023/08/12 00:51:30;;;;;;;5.85;4.03;;;19.80;99.90;;;;;;5018635;28;89226;-36
2023/08/12 00:53:58;;;;;;;4.78;3.80;;;19.80;99.90;;;;;;5018854;28;89765;-32
2023/08/12 00:56:25;;;;;;;5.22;4.68;;;19.80;99.90;;;;;;5011400;28;89633;-33
2023/08/12 00:58:51;;;;;;;7.30;5.25;;;19.70;99.90;;;;;;5013901;28;89279;-33
2023/08/12 01:01:18;;;;;;;7.43;4.63;;;19.70;99.90;;;;;;5018261;28;88674;-32
2023/08/12 01:03:43;;;;;;;7.63;5.00;;;19.70;99.90;;;;;;5004804;28;91004;-32
2023/08/12 01:06:09;;;;;;;6.45;4.95;;;19.70;99.90;;;;;;4998379;28;90792;-32
2023/08/12 01:08:35;;;;;;;7.60;4.57;;;19.70;99.90;;;;;;5012421;28;89552;-32
2023/08/12 01:11:22;;;;;;;6.60;4.97;;;19.60;99.90;;;;;;5019750;28;89309;-32
2023/08/12 01:14:10;;;;;;;7.28;5.85;;;19.60;99.90;;;;;;5018018;28;88683;-33
2023/08/12 01:16:41;;;;;;;6.25;5.65;;;19.60;99.90;;;;;;5016763;28;89559;-36
2023/08/12 01:19:11;;;;;;;12.85;5.97;;;19.60;99.90;;;;;;5018701;28;89443;-37
2023/08/12 01:21:43;;;;;;;8.25;6.93;;;19.60;99.90;;;;;;5018064;28;87932;-32
2023/08/12 01:24:09;;;;;;;7.90;6.82;;;19.60;99.90;;;;;;5010389;28;90275;-33
2023/08/12 01:26:35;;;;;;;12.15;7.38;;;19.60;99.90;;;;;;4998893;28;89639;-34
2023/08/12 01:29:00;;;;;;;8.82;7.40;;;19.60;99.90;;;;;;4998461;28;89919;-35
2023/08/12 01:31:31;;;;;;;9.43;7.38;;;19.50;99.90;;;;;;5000635;28;91114;-32
2023/08/12 01:34:23;;;;;;;9.55;7.88;;;19.50;99.90;;;;;;5018983;28;90469;-34
2023/08/12 01:36:56;;;;;;;9.68;7.18;;;19.50;99.90;;;;;;5017483;28;90408;-31
2023/08/12 01:39:25;;;;;;;9.18;8.02;;;19.50;99.90;;;;;;5017291;28;89598;-32
2023/08/12 01:41:52;;;;;;;10.48;7.97;;;19.40;99.90;;;;;;5018725;28;89470;-34
2023/08/12 01:44:18;;;;;;;8.77;7.28;;;19.40;99.90;;;;;;5017614;28;90402;-30
2023/08/12 01:46:44;;;;;;;13.30;7.82;;;19.40;99.90;;;;;;5018485;28;90022;-35
2023/08/12 01:49:10;;;;;;;11.93;8.73;;;19.50;99.90;;;;;;5017041;28;90073;-32
2023/08/12 01:51:35;;;;;;;11.32;8.38;;;19.50;99.90;;;;;;5018456;28;90438;-32
2023/08/12 01:54:01;;;;;;;11.63;7.35;;;19.50;99.90;;;;;;5018115;28;90767;-31
2023/08/12 01:56:27;;;;;;;9.90;8.93;;;19.50;99.90;;;;;;5017657;28;90729;-32
2023/08/12 01:58:53;;;;;;;11.88;9.18;;;19.40;99.90;;;;;;5017180;28;90474;-34
2023/08/12 02:01:19;;;;;;;10.70;9.40;;;19.40;99.90;;;;;;5017719;28;88983;-34
2023/08/12 02:03:44;;;;;;;17.38;10.38;;;19.40;99.90;;;;;;5004163;28;90205;-35
2023/08/12 02:06:10;;;;;;;15.95;9.63;;;19.40;99.90;;;;;;4998083;28;91292;-31
2023/08/12 02:08:36;;;;;;;10.68;9.57;;;19.40;99.90;;;;;;4998255;28;89693;-31
2023/08/12 02:11:02;;;;;;;11.73;10.23;;;19.40;99.90;;;;;;4999555;28;89242;-31
2023/08/12 02:13:28;;;;;;;14.32;10.27;;;19.40;99.90;;;;;;4997213;28;90064;-32
2023/08/12 02:15:53;;;;;;;10.68;9.25;;;19.40;99.90;;;;;;4997265;28;89272;-37
2023/08/12 02:18:19;;;;;;;11.57;9.68;;;19.40;99.90;;;;;;4998416;28;89631;-34
2023/08/12 02:20:47;;;;;;;15.43;9.10;;;19.30;99.90;;;;;;4997471;28;89912;-36
2023/08/12 02:23:13;;;;;;;14.40;10.32;;;19.30;99.90;;;;;;4997957;28;90598;-34
2023/08/12 02:25:39;;;;;;;12.15;9.70;;;19.30;99.90;;;;;;4997197;28;90141;-32
2023/08/12 02:28:04;;;;;;;12.50;9.95;;;19.20;99.90;;;;;;4979864;28;89205;-35
2023/08/12 02:30:30;;;;;;;13.05;10.13;;;19.20;99.90;;;;;;4998500;28;88376;-35
2023/08/12 02:32:56;;;;;;;9.25;8.35;;;19.20;99.90;;;;;;4996338;28;90698;-34
2023/08/12 02:35:21;;;;;;;15.20;9.20;;;19.20;99.90;;;;;;5004708;28;89756;-33
2023/08/12 02:37:50;;;;;;;17.17;10.20;;;19.30;99.90;;;;;;5017323;28;88643;-32
2023/08/12 02:40:16;;;;;;;9.95;7.95;;;19.30;99.90;;;;;;5016650;28;89721;-33
2023/08/12 02:42:41;;;;;;;12.15;9.15;;;19.30;99.90;;;;;;5018211;28;88781;-32
2023/08/12 02:45:07;;;;;;;14.93;9.77;;;19.20;99.90;;;;;;4997393;28;90765;-36
2023/08/12 02:47:33;;;;;;;12.60;9.75;;;19.30;99.90;;;;;;5000157;28;89252;-36
2023/08/12 02:49:58;;;;;;;14.88;9.70;;;19.30;99.90;;;;;;5002549;28;87962;-32
2023/08/12 02:52:24;;;;;;;14.07;11.13;;;19.30;99.90;;;;;;5001088;28;90836;-30
2023/08/12 02:54:49;;;;;;;12.40;10.55;;;19.20;99.90;;;;;;5001300;28;90008;-31
2023/08/12 02:57:15;;;;;;;18.42;10.70;;;19.20;99.90;;;;;;5001398;28;90210;-33
2023/08/12 02:59:41;;;;;;;15.93;12.02;;;19.20;99.90;;;;;;4999444;28;89609;-37
2023/08/12 03:02:07;;;;;;;12.15;9.25;;;19.20;99.90;;;;;;5013330;28;89639;-33
2023/08/12 03:04:32;;;;;;;18.13;11.52;;;19.30;99.90;;;;;;5008278;28;89597;-34
2023/08/12 03:06:58;;;;;;;14.40;11.18;;;19.30;99.90;;;;;;5020409;28;89614;-30
2023/08/12 03:09:23;;;;;;;21.58;14.07;;;19.30;99.90;;;;;;5018825;28;90510;-32
2023/08/12 03:11:49;;;;;;;16.20;11.15;;;19.30;99.90;;;;;;5019046;28;90767;-33
2023/08/12 03:14:15;;;;;;;13.75;11.00;;;19.30;99.90;;;;;;5018921;28;91132;-33
2023/08/12 03:16:40;;;;;;;15.15;11.80;;;19.30;99.90;;;;;;5018484;28;90276;-31
2023/08/12 03:19:06;;;;;;;17.75;12.25;;;19.30;99.90;;;;;;5019473;28;88219;-32
2023/08/12 03:21:32;;;;;;;14.60;11.45;;;19.30;99.90;;;;;;5018853;28;92071;-32
2023/08/12 03:23:57;;;;;;;18.95;11.35;;;19.30;99.90;;;;;;5019661;28;90138;-32
2023/08/12 03:26:23;;;;;;;18.00;13.18;;;19.30;99.90;;;;;;5018558;28;90109;-35
2023/08/12 03:28:49;;;;;;;17.02;12.35;;;19.30;99.90;;;;;;5019702;28;88662;-33
2023/08/12 03:31:14;;;;;;;13.57;12.13;;;19.30;99.90;;;;;;5018654;28;91474;-31
2023/08/12 03:33:40;;;;;;;13.95;11.35;;;19.30;99.90;;;;;;5005386;28;90487;-34
2023/08/12 03:36:06;;;;;;;13.68;10.85;;;19.30;99.90;;;;;;5018519;28;90652;-32
2023/08/12 03:38:31;;;;;;;14.55;11.52;;;19.40;99.90;;;;;;5017963;28;90083;-32
2023/08/12 03:40:57;;;;;;;13.55;10.57;;;19.40;99.90;;;;;;5015262;28;89186;-32
2023/08/12 03:43:23;;;;;;;14.93;10.23;;;19.40;99.90;;;;;;5018437;28;89501;-34
2023/08/12 03:45:48;;;;;;;13.90;10.98;;;19.40;99.90;;;;;;5018703;28;89691;-36
2023/08/12 03:48:14;;;;;;;14.32;10.23;;;19.30;99.90;;;;;;5018363;28;89301;-35
2023/08/12 03:50:42;;;;;;;14.55;12.23;;;19.30;99.90;;;;;;5018709;28;90139;-35
2023/08/12 03:53:08;;;;;;;18.13;11.43;;;19.30;99.90;;;;;;5018558;28;89813;-35
2023/08/12 03:55:34;;;;;;;16.88;12.23;;;19.30;99.90;;;;;;5018594;28;90824;-35
2023/08/12 03:58:00;;;;;;;13.98;10.60;;;19.30;99.90;;;;;;5017639;27;89525;-35
2023/08/12 04:00:27;;;;;;;15.13;10.25;;;19.30;99.90;;;;;;5018229;28;88820;-33
2023/08/12 04:02:53;;;;;;;16.23;11.23;;;19.30;99.90;;;;;;5019079;28;91455;-35
2023/08/12 04:05:18;;;;;;;15.13;10.57;;;19.20;99.90;;;;;;5004369;28;90988;-36
2023/08/12 04:07:44;;;;;;;13.68;11.52;;;19.20;99.90;;;;;;5006433;28;90184;-31
2023/08/12 04:10:10;;;;;;;12.82;10.55;;;19.20;99.90;;;;;;5018218;28;89637;-31
2023/08/12 04:12:36;;;;;;;13.05;10.40;;;19.20;99.90;;;;;;5019460;28;90230;-35
2023/08/12 04:15:04;;;;;;;15.65;10.88;;;19.20;99.90;;;;;;5017803;28;89393;-35
2023/08/12 04:17:30;;;;;;;15.65;11.48;;;19.20;99.90;;;;;;5016890;28;88808;-34
2023/08/12 04:19:56;;;;;;;14.80;11.38;;;19.20;99.90;;;;;;5017936;28;89990;-32
2023/08/12 04:22:21;;;;;;;14.07;12.32;;;19.20;99.90;;;;;;5017719;28;91091;-33
2023/08/12 04:24:47;;;;;;;15.38;11.60;;;19.20;99.90;;;;;;5017384;28;91044;-34
2023/08/12 04:27:12;;;;;;;11.75;10.20;;;19.20;99.90;;;;;;5005427;28;87799;-34
2023/08/12 04:29:38;;;;;;;12.88;9.85;;;19.30;99.90;;;;;;4998537;28;90537;-31
2023/08/12 04:32:04;;;;;;;13.82;10.30;;;19.30;99.90;;;;;;5018972;28;89354;-32
2023/08/12 04:34:29;;;;;;;14.77;11.40;;;19.30;99.90;;;;;;5017526;28;90102;-31
2023/08/12 04:36:55;;;;;;;16.70;11.35;;;19.20;99.90;;;;;;5017661;28;87934;-35
2023/08/12 04:39:22;;;;;;;12.68;11.23;;;19.30;99.90;;;;;;5016833;28;90375;-32
2023/08/12 04:41:48;;;;;;;18.17;12.07;;;19.30;99.90;;;;;;5005109;28;89832;-33
2023/08/12 04:44:13;;;;;;;15.80;12.27;;;19.30;99.90;;;;;;5017802;28;89471;-33
2023/08/12 04:46:39;;;;;;;13.30;11.07;;;19.30;99.90;;;;;;5017649;28;90517;-32
2023/08/12 04:49:05;;;;;;;14.75;12.18;;;19.40;99.90;;;;;;5016810;28;89922;-36
2023/08/12 04:51:31;;;;;;;16.90;12.50;;;19.40;99.90;;;;;;4992444;28;88917;-32
2023/08/12 04:53:57;;;;;;;15.45;12.60;;;19.40;99.90;;;;;;5016995;28;89549;-35
2023/08/12 04:56:24;;;;;;;14.55;12.27;;;19.40;99.90;;;;;;5005645;28;89125;-32
2023/08/12 04:58:49;;;;;;;14.82;12.38;;;19.40;99.90;;;;;;5016838;28;89966;-32
2023/08/12 05:01:15;;;;;;;15.55;13.63;;;19.40;99.90;;;;;;4997212;28;89104;-32
2023/08/12 05:03:41;;;;;;;17.98;12.73;;;19.40;99.90;;;;;;5008034;28;88251;-34
2023/08/12 05:06:06;;;;;;;14.48;12.48;;;19.40;99.90;;;;;;5017899;28;90813;-31
2023/08/12 05:08:32;;;;;;;15.98;12.63;;;19.40;99.90;;;;;;5017706;28;89374;-30
2023/08/12 05:10:58;;;;;;;17.02;12.85;;;19.50;99.90;;;;;;4990792;28;90913;-33
2023/08/12 05:13:23;;;;;;;15.73;13.63;;;19.40;99.90;;;;;;5016593;28;90485;-36
2023/08/12 05:15:49;;;;;;;15.75;11.88;;;19.40;99.90;;;;;;5017784;28;88867;-33
2023/08/12 05:18:15;;;;;;;12.68;11.40;;;19.40;99.90;;;;;;5016051;28;90714;-37
2023/08/12 05:20:41;;;;;;;13.77;12.38;;;19.40;99.90;;;;;;5018411;28;89695;-33
2023/08/12 05:23:08;;;;;;;18.23;13.40;;;19.40;99.90;;;;;;5016972;28;89552;-35
2023/08/12 05:25:33;;;;;;;18.83;15.05;;;19.50;99.90;;;;;;5017474;28;88761;-33
2023/08/12 05:27:59;;;;;;;21.00;14.52;;;19.50;99.90;;;;;;5004736;28;90062;-31
2023/08/12 05:30:25;;;;;;;16.67;13.40;;;19.50;99.90;;;;;;5017166;28;89864;-32
2023/08/12 05:32:50;;;;;;;17.20;14.98;;;19.50;99.90;;;;;;5018196;28;89759;-31
2023/08/12 05:35:16;;;;;;;19.60;14.85;;;19.60;99.90;;;;;;5017045;28;88935;-34
2023/08/12 05:37:41;;;;;;;18.40;16.58;;;19.60;99.90;;;;;;5003825;28;91415;-33
2023/08/12 05:40:11;;;;;;;20.45;15.10;;;19.60;99.90;;;;;;4997764;28;90267;-36
2023/08/12 05:42:37;;;;;;;21.80;16.38;;;19.70;99.90;;;;;;4997564;28;88468;-33
2023/08/12 05:45:04;;;;;;;25.65;16.65;;;19.70;99.90;;;;;;5005208;28;90053;-36
2023/08/12 05:47:30;;;;;;;27.98;20.38;;;19.70;99.90;;;;;;5003684;28;91096;-34
2023/08/12 05:49:55;;;;;;;22.77;16.73;;;19.80;99.90;;;;;;4997664;28;89561;-32
2023/08/12 05:52:21;;;;;;;26.77;18.38;;;19.80;99.90;;;;;;4998054;28;88918;-36
2023/08/12 05:54:46;;;;;;;24.20;19.80;;;20.00;99.90;;;;;;4998382;28;89530;-32
2023/08/12 05:57:12;;;;;;;24.63;17.13;;;20.20;99.90;;;;;;5011320;28;90506;-36
2023/08/12 05:59:37;;;;;;;24.08;19.10;;;20.30;99.90;;;;;;5017221;28;90302;-31
2023/08/12 06:02:03;;;;;;;24.45;17.85;;;20.30;99.90;;;;;;5016742;28;90272;-32
2023/08/12 06:04:29;;;;;;;19.95;17.00;;;20.30;99.90;;;;;;4985421;28;89697;-32
2023/08/12 06:06:55;;;;;;;26.73;18.13;;;20.30;99.90;;;;;;5010732;28;90256;-36
2023/08/12 06:09:21;;;;;;;22.42;17.95;;;20.40;99.90;;;;;;4979099;28;90238;-35
2023/08/12 06:11:47;;;;;;;24.10;19.20;;;20.50;99.90;;;;;;4998125;28;90185;-32
2023/08/12 06:14:13;;;;;;;24.38;21.20;;;20.60;99.90;;;;;;4983796;28;89275;-32
2023/08/12 06:16:38;;;;;;;23.60;18.88;;;20.80;99.90;;;;;;4998076;28;89710;-34
2023/08/12 06:19:04;;;;;;;24.52;20.05;;;20.90;99.90;;;;;;4996892;28;89841;-36
2023/08/12 06:21:30;;;;;;;28.70;20.60;;;21.00;99.90;;;;;;4998320;28;89597;-35
2023/08/12 06:23:55;;;;;;;27.45;20.80;;;21.10;99.90;;;;;;5001469;28;89707;-33
2023/08/12 06:26:21;;;;;;;24.98;20.35;;;21.20;99.90;;;;;;5000973;28;90597;-33
2023/08/12 06:28:47;;;;;;;27.02;19.70;;;21.10;99.90;;;;;;5001437;28;89172;-34
2023/08/12 06:31:13;;;;;;;21.52;19.33;;;21.20;99.90;;;;;;5000784;28;89520;-34
2023/08/12 06:33:38;;;;;;;28.67;20.50;;;21.20;99.90;;;;;;4990058;28;89401;-33
2023/08/12 06:36:04;;;;;;;23.83;19.92;;;21.20;99.90;;;;;;5002146;28;90198;-34
2023/08/12 06:38:30;;;;;;;26.92;20.02;;;21.20;99.90;;;;;;5001211;28;89065;-36
2023/08/12 06:40:55;;;;;;;31.15;19.60;;;21.10;99.90;;;;;;5001334;28;89675;-31
2023/08/12 06:43:21;;;;;;;27.60;19.80;;;21.10;99.90;;;;;;5018738;28;89428;-32
2023/08/12 06:45:47;;;;;;;22.60;19.33;;;21.00;99.90;;;;;;5015940;28;89094;-35
2023/08/12 06:48:12;;;;;;;22.33;17.15;;;21.00;99.90;;;;;;5017398;28;90586;-33
2023/08/12 06:50:38;;;;;;;23.92;17.17;;;21.00;99.90;;;;;;5015605;28;90534;-33
2023/08/12 06:53:04;;;;;;;24.67;19.13;;;21.00;99.90;;;;;;5018344;28;89119;-33
2023/08/12 06:55:30;;;;;;;25.60;19.83;;;21.00;99.90;;;;;;5014836;28;90007;-31
2023/08/12 06:57:55;;;;;;;26.63;19.80;;;21.10;99.90;;;;;;5018319;28;89664;-33
2023/08/12 07:00:21;;;;;;;27.30;23.40;;;21.00;99.90;;;;;;5014728;28;89529;-33
2023/08/12 07:02:47;;;;;;;22.48;18.80;;;20.90;99.90;;;;;;5002964;28;90164;-32
2023/08/12 07:05:13;;;;;;;26.42;23.63;;;21.00;99.90;;;;;;5020116;28;89292;-34
2023/08/12 07:07:38;;;;;;;26.65;22.23;;;20.90;99.90;;;;;;5019694;28;88511;-35
2023/08/12 07:10:06;;;;;;;34.00;23.83;;;20.90;99.90;;;;;;5020431;28;89529;-32
2023/08/12 07:12:32;;;;;;;28.65;23.35;;;20.90;99.90;;;;;;5018352;28;89685;-33
2023/08/12 07:14:58;;;;;;;31.92;23.60;;;20.90;99.90;;;;;;5018918;28;89881;-32
2023/08/12 07:17:23;;;;;;;27.70;23.77;;;20.90;99.90;;;;;;5019508;28;90053;-31
2023/08/12 07:19:49;;;;;;;32.40;25.35;;;20.90;99.90;;;;;;5019787;28;90372;-32
2023/08/12 07:22:19;;;;;;;25.58;22.88;;;20.80;99.90;;;;;;5019255;28;89465;-36
2023/08/12 07:24:45;;;;;;;35.80;25.60;;;20.80;99.90;;;;;;5019551;28;89579;-33
2023/08/12 07:27:10;;;;;;;27.00;24.17;;;20.80;99.90;;;;;;5004482;28;90991;-35
2023/08/12 07:29:36;;;;;;;28.15;24.58;;;20.80;99.90;;;;;;4998935;28;90483;-34
2023/08/12 07:32:02;;;;;;;26.88;21.83;;;20.80;99.90;;;;;;5013490;28;88936;-30
2023/08/12 07:34:27;;;;;;;26.60;23.70;;;20.80;99.90;;;;;;4998110;28;90353;-33
2023/08/12 07:36:53;;;;;;;29.33;23.40;;;20.90;99.90;;;;;;4999808;28;91127;-33
2023/08/12 07:39:19;;;;;;;28.08;23.50;;;20.90;99.90;;;;;;4999461;28;90855;-35
2023/08/12 07:41:44;;;;;;;29.50;23.27;;;20.80;99.90;;;;;;5000553;28;87942;-32
2023/08/12 07:44:10;;;;;;;26.20;22.65;;;20.90;99.90;;;;;;5000180;28;90617;-32
2023/08/12 07:46:35;;;;;;;27.30;22.90;;;20.80;99.90;;;;;;4999811;28;89850;-32
2023/08/12 07:49:01;;;;;;;25.65;22.85;;;20.80;99.90;;;;;;5001968;28;89737;-31
2023/08/12 07:51:27;;;;;;;25.83;23.15;;;20.80;99.90;;;;;;5001613;28;89064;-31
2023/08/12 07:53:52;;;;;;;30.60;22.15;;;20.80;99.90;;;;;;5002115;28;90419;-33
2023/08/12 07:56:18;;;;;;;26.23;22.35;;;20.70;99.90;;;;;;5001827;28;89297;-32
2023/08/12 07:58:45;;;;;;;31.80;22.85;;;20.70;99.90;;;;;;5001541;28;89682;-32
2023/08/12 08:01:11;;;;;;;24.97;21.00;;;20.70;99.90;;;;;;5007030;28;88818;-32
2023/08/12 08:03:36;;;;;;;25.23;20.48;;;20.70;99.90;;;;;;5006487;28;89260;-33
2023/08/12 08:06:02;;;;;;;31.13;21.08;;;20.70;99.90;;;;;;4982234;28;91161;-31
2023/08/12 08:08:28;;;;;;;23.35;20.85;;;20.70;99.90;;;;;;4998945;28;90055;-32
2023/08/12 08:10:53;;;;;;;28.33;22.95;;;20.80;99.90;;;;;;4999686;28;89446;-36
2023/08/12 08:13:19;;;;;;;28.13;20.75;;;20.80;99.90;;;;;;4998653;28;90318;-33
2023/08/12 08:15:45;;;;;;;26.10;21.42;;;20.70;99.90;;;;;;4998919;28;89594;-31
2023/08/12 08:18:11;;;;;;;26.35;20.80;;;20.70;99.90;;;;;;5051345;22;89438;-32
2023/08/12 08:20:37;;;;;;;26.13;21.35;;;20.70;99.90;;;;;;4992921;28;89960;-32
2023/08/12 08:23:03;;;;;;;23.52;20.15;;;20.70;99.90;;;;;;4997369;28;89634;-30
2023/08/12 08:25:28;;;;;;;19.42;17.38;;;20.70;99.90;;;;;;5004059;28;90346;-33
2023/08/12 08:27:54;;;;;;;24.13;19.95;;;20.60;99.90;;;;;;4996468;28;89816;-36
2023/08/12 08:30:19;;;;;;;21.70;18.25;;;20.70;99.90;;;;;;5002676;28;88663;-33
2023/08/12 08:32:46;;;;;;;20.85;15.90;;;20.70;99.90;;;;;;4993998;28;90562;-31
2023/08/12 08:35:12;;;;;;;18.63;16.80;;;20.60;99.90;;;;;;4995909;28;90288;-34
2023/08/12 08:37:37;;;;;;;19.75;17.02;;;20.60;99.90;;;;;;4995781;28;89450;-33
2023/08/12 08:40:04;;;;;;;19.08;15.40;;;20.60;99.90;;;;;;4996377;28;88839;-36
2023/08/12 08:42:30;;;;;;;22.48;13.70;;;20.50;99.90;;;;;;4996268;28;91143;-34
2023/08/12 08:45:01;;;;;;;14.15;10.63;;;20.40;99.90;;;;;;4996143;28;88782;-36
2023/08/12 08:47:27;;;;;;;14.57;8.45;;;20.40;99.90;;;;;;4995917;28;89483;-34
2023/08/12 08:49:57;;;;;;;8.27;7.35;;;20.30;99.90;;;;;;4995930;28;89152;-34
2023/08/12 08:52:26;;;;;;;10.75;7.65;;;20.20;99.90;;;;;;4977982;28;90566;-33
2023/08/12 08:54:52;;;;;;;9.68;7.57;;;20.10;99.90;;;;;;4996699;28;89660;-37
2023/08/12 08:57:19;;;;;;;7.82;7.03;;;20.00;99.90;;;;;;4996938;28;88739;-34
2023/08/12 08:59:45;;;;;;;12.07;9.18;;;20.10;99.90;;;;;;4996206;28;88183;-33
2023/08/12 09:02:17;;;;;;;10.13;8.07;;;20.10;99.90;;;;;;4995422;28;90771;-36
2023/08/12 09:04:44;;;;;;;11.00;8.13;;;20.10;99.90;;;;;;4996369;28;89270;-35
2023/08/12 09:07:11;;;;;;;9.85;8.25;;;20.10;99.90;;;;;;4997361;28;88426;-33
2023/08/12 09:09:39;;;;;;;17.07;10.73;;;20.20;99.90;;;;;;4997402;28;88964;-33
2023/08/12 09:12:06;;;;;;;;;;;20.20;99.90;;;;;;4997278;28;90820;-31
2023/08/12 09:14:31;;;;;;;12.90;11.27;;;20.20;99.90;;;;;;4997293;28;90860;-34
2023/08/12 09:16:57;;;;;;;12.05;10.75;;;20.20;99.90;;;;;;4996547;28;90195;-33
2023/08/12 09:19:23;;;;;;;16.25;13.25;;;20.20;99.90;;;;;;4994972;28;88736;-34
2023/08/12 09:21:53;;;;;;;13.02;11.40;;;20.20;99.90;;;;;;4995426;28;90614;-34
2023/08/12 09:24:24;;;;;;;12.57;11.48;;;20.20;99.90;;;;;;4995174;28;89311;-36
2023/08/12 09:26:56;;;;;;;13.52;11.82;;;20.20;99.90;;;;;;4995421;28;89524;-30
2023/08/12 09:29:24;;;;;;;12.73;10.65;;;20.20;99.90;;;;;;4996092;28;89317;-34
2023/08/12 09:31:50;;;;;;;13.25;10.38;;;20.20;99.90;;;;;;4994937;28;89886;-32
2023/08/12 09:34:17;;;;;;;12.75;10.88;;;20.20;99.90;;;;;;4995273;28;89664;-36
2023/08/12 09:36:43;;;;;;;15.55;11.00;;;20.20;99.90;;;;;;4996063;28;89103;-32
2023/08/12 09:39:09;;;;;;;12.07;9.93;;;20.20;99.90;;;;;;4995164;28;89210;-33
2023/08/12 09:41:35;;;;;;;9.60;8.60;;;20.10;99.90;;;;;;4996109;28;90295;-35
2023/08/12 09:44:02;;;;;;;9.85;8.20;;;20.10;99.90;;;;;;4996466;28;90833;-33
2023/08/12 09:46:28;;;;;;;9.00;7.55;;;20.10;99.90;;;;;;4995632;28;89372;-33
2023/08/12 09:48:54;;;;;;;8.90;8.00;;;20.10;99.90;;;;;;4998588;28;89362;-34
2023/08/12 09:51:23;;;;;;;8.98;7.88;;;20.10;99.90;;;;;;4995405;28;89891;-36
2023/08/12 09:53:49;;;;;;;6.97;6.30;;;20.10;99.90;;;;;;4996264;28;89531;-33
2023/08/12 09:56:19;;;;;;;7.00;6.15;;;20.00;99.90;;;;;;4995972;28;89241;-32
2023/08/12 09:58:48;;;;;;;6.55;5.75;;;19.90;99.90;;;;;;4999680;28;89215;-36
2023/08/12 10:01:16;;;;;;;6.25;5.65;;;19.90;99.90;;;;;;4998579;28;90201;-37
2023/08/12 10:03:46;;;;;;;5.60;5.10;;;19.90;99.90;;;;;;4999251;28;90143;-33
2023/08/12 10:06:12;;;;;;;5.75;5.07;;;19.90;99.90;;;;;;4981693;28;89911;-31
2023/08/12 10:08:38;;;;;;;5.38;4.88;;;19.80;99.90;;;;;;4999381;28;89206;-33
2023/08/12 10:11:03;;;;;;;6.78;5.38;;;19.80;99.90;;;;;;4998945;28;89949;-34
2023/08/12 10:13:29;;;;;;;4.97;4.57;;;19.80;99.90;;;;;;4999216;28;89822;-34
2023/08/12 10:15:55;;;;;;;6.10;4.47;;;19.80;99.90;;;;;;4999138;28;90170;-31
2023/08/12 10:18:23;;;;;;;4.07;3.78;;;19.80;99.90;;;;;;4999176;28;88395;-34
2023/08/12 10:20:51;;;;;;;4.35;3.85;;;19.80;99.90;;;;;;4999321;28;90118;-33
2023/08/12 10:23:19;;;;;;;4.82;4.40;;;19.80;99.90;;;;;;4998422;28;91071;-34
2023/08/12 10:25:47;;;;;;;5.85;4.40;;;19.80;99.90;;;;;;4998821;28;89581;-33
2023/08/12 10:28:13;;;;;;;5.50;4.30;;;19.80;99.90;;;;;;4998325;28;89971;-36
2023/08/12 10:30:41;;;;;;;5.35;4.35;;;19.80;99.90;;;;;;4999240;28;90161;-33
2023/08/12 10:33:07;;;;;;;;;;;19.80;99.90;;;;;;4999949;28;90554;-32
2023/08/12 10:35:46;;;;;;;4.28;3.88;;;19.80;99.90;;;;;;4999382;28;88895;-32
2023/08/12 10:38:17;;;;;;;6.20;4.75;;;19.80;99.90;;;;;;4999661;28;89983;-31
2023/08/12 10:40:43;;;;;;;4.30;3.83;;;19.80;99.90;;;;;;4998392;28;90348;-32
2023/08/12 10:43:10;;;;;;;5.00;3.53;;;19.80;99.90;;;;;;4998582;28;89906;-36
2023/08/12 10:45:47;;;;;;;4.10;3.70;;;19.80;99.90;;;;;;4999032;28;89121;-36
2023/08/12 10:48:23;;;;;;;4.47;3.05;;;19.80;99.90;;;;;;4998625;28;88537;-34
2023/08/12 10:50:53;;;;;;;3.67;3.13;;;19.70;99.90;;;;;;4998273;28;91935;-34
2023/08/12 10:53:22;;;;;;;3.13;2.55;;;19.80;99.90;;;;;;4997232;28;91425;-33
2023/08/12 10:55:55;;;;;;;3.05;2.83;;;19.80;99.90;;;;;;4997884;28;89847;-33
2023/08/12 10:58:34;;;;;;;3.25;2.92;;;19.80;99.90;;;;;;4998147;28;88007;-30
2023/08/12 11:01:00;;;;;;;2.63;2.40;;;19.80;99.90;;;;;;4997829;28;89761;-31
2023/08/12 11:03:31;;;;;;;4.45;2.17;;;19.90;99.90;;;;;;4997639;28;90022;-35
2023/08/12 11:05:59;;;;;;;1.83;1.73;;;19.90;99.90;;;;;;4997973;28;89749;-31
2023/08/12 11:08:27;;;;;;;3.25;2.40;;;20.00;99.90;;;;;;4998248;28;88744;-34
2023/08/12 11:10:55;;;;;;;2.23;2.03;;;20.00;99.90;;;;;;4997921;28;90367;-33
2023/08/12 11:13:21;;;;;;;2.80;2.38;;;20.00;99.90;;;;;;4998107;28;91193;-31
2023/08/12 11:15:47;;;;;;;2.20;2.00;;;20.10;99.90;;;;;;4997765;28;89888;-32
2023/08/12 11:18:16;;;;;;;4.65;2.95;;;20.20;99.90;;;;;;4995948;28;89686;-36
2023/08/12 11:20:42;;;;;;;2.28;2.03;;;20.30;99.90;;;;;;4997070;28;90592;-32
2023/08/12 11:23:09;;;;;;;2.20;1.98;;;20.30;99.90;;;;;;4993211;28;90479;-32
2023/08/12 11:25:37;;;;;;;2.67;2.45;;;20.40;99.90;;;;;;4983206;28;89362;-31
2023/08/12 11:28:04;;;;;;;2.58;2.38;;;20.50;99.90;;;;;;4992717;28;89902;-36
2023/08/12 11:30:30;;;;;;;2.07;1.87;;;20.50;99.90;;;;;;4985719;28;90401;-35
2023/08/12 11:32:58;;;;;;;2.17;1.95;;;20.50;99.90;;;;;;4993378;28;91680;-33
2023/08/12 11:35:24;;;;;;;2.42;2.22;;;20.60;99.90;;;;;;4996290;28;89768;-33
2023/08/12 11:37:53;;;;;;;2.20;2.00;;;20.60;99.90;;;;;;4990190;28;90756;-33
2023/08/12 11:40:19;;;;;;;3.15;2.20;;;20.70;99.90;;;;;;4992951;28;89658;-32
2023/08/12 11:42:46;;;;;;;1.95;1.70;;;20.60;99.90;;;;;;4994600;28;90988;-36
2023/08/12 11:45:13;;;;;;;2.22;2.03;;;20.60;99.90;;;;;;4993512;28;90435;-33
2023/08/12 11:47:40;;;;;;;1.48;1.38;;;20.70;99.90;;;;;;4994481;28;88764;-34
2023/08/12 11:50:08;;;;;;;1.38;1.30;;;20.60;99.90;;;;;;4996747;28;90028;-30
2023/08/12 11:52:35;;;;;;;2.03;1.92;;;20.60;99.90;;;;;;4994701;28;89639;-33
2023/08/12 11:55:01;;;;;;;1.58;1.45;;;20.50;99.90;;;;;;4996881;28;90076;-36
2023/08/12 11:57:30;;;;;;;1.55;1.45;;;20.40;99.90;;;;;;4995800;28;88959;-32
2023/08/12 12:00:05;;;;;;;2.47;1.85;;;20.40;99.90;;;;;;4987459;28;89907;-33
2023/08/12 12:02:31;;;;;;;2.28;1.92;;;20.50;99.90;;;;;;4977051;28;89350;-33
2023/08/12 12:04:57;;;;;;;1.83;1.73;;;20.50;99.90;;;;;;4991440;28;89603;-35
2023/08/12 12:07:24;;;;;;;2.13;1.83;;;20.50;99.90;;;;;;4979131;28;89169;-36
2023/08/12 12:09:54;;;;;;;2.05;1.58;;;20.40;99.90;;;;;;4986124;28;89926;-34
2023/08/12 12:12:26;;;;;;;1.80;1.70;;;20.60;99.90;;;;;;4979883;28;89668;-33
2023/08/12 12:14:54;;;;;;;2.00;1.80;;;20.70;99.90;;;;;;4982980;28;91354;-35
2023/08/12 12:17:23;;;;;;;;;;;20.80;99.90;;;;;;4985303;28;89273;-33
2023/08/12 12:19:58;;;;;;;2.78;1.85;;;20.80;99.90;;;;;;4981353;28;90432;-34
2023/08/12 12:22:35;;;;;;;2.00;1.80;;;20.90;99.90;;;;;;4995113;28;89887;-35
2023/08/12 12:25:06;;;;;;;1.58;1.48;;;21.10;99.90;;;;;;4991032;28;90050;-33
2023/08/12 12:27:33;;;;;;;2.50;2.30;;;21.10;99.90;;;;;;4994420;28;88305;-33
2023/08/12 12:30:00;;;;;;;1.95;1.85;;;21.10;99.90;;;;;;4988408;28;90917;-33
2023/08/12 12:32:26;;;;;;;3.28;2.00;;;21.20;99.90;;;;;;4987333;28;90519;-34